createdAt,value
2019-02-23T00:04:38.439Z,-5.60
2019-02-23T00:09:45.547Z,-5.50
2019-02-23T00:14:55.471Z,-5.40
2019-02-23T00:20:04.407Z,-5.30
2019-02-23T00:25:11.595Z,-5.20
2019-02-23T00:30:18.933Z,-5.20
2019-02-23T00:35:26.285Z,-5.00
2019-02-23T00:40:35.074Z,-5.00
2019-02-23T00:45:42.218Z,-4.90
2019-02-23T00:50:50.455Z,-5.00
2019-02-23T00:55:57.558Z,-5.00
2019-02-23T01:01:05.931Z,-5.10
2019-02-23T01:06:14.157Z,-5.20
2019-02-23T01:11:21.248Z,-5.40
2019-02-23T01:16:28.660Z,-5.40
2019-02-23T01:21:35.914Z,-5.30
2019-02-23T01:26:44.550Z,-5.30
2019-02-23T01:31:51.758Z,-5.20
2019-02-23T01:36:59.967Z,-5.20
2019-02-23T01:42:07.283Z,-5.10
2019-02-23T01:47:14.481Z,-5.00
2019-02-23T01:52:21.685Z,-4.90
2019-02-23T01:57:28.753Z,-4.90
2019-02-23T02:02:35.931Z,-4.80
2019-02-23T02:07:43.488Z,-4.70
2019-02-23T02:12:50.742Z,-4.70
2019-02-23T02:17:57.969Z,-4.80
2019-02-23T02:23:06.022Z,-4.90
2019-02-23T02:28:13.225Z,-4.80
2019-02-23T02:33:21.190Z,-4.80
2019-02-23T02:38:28.483Z,-4.80
2019-02-23T02:43:35.586Z,-4.80
2019-02-23T02:48:44.555Z,-4.70
2019-02-23T02:53:51.911Z,-4.70
2019-02-23T02:59:00.226Z,-4.70
2019-02-23T03:04:07.435Z,-4.70
2019-02-23T03:09:14.383Z,-4.70
2019-02-23T03:14:21.458Z,-4.70
2019-02-23T03:19:28.698Z,-4.60
2019-02-23T03:24:35.897Z,-4.60
2019-02-23T03:29:43.189Z,-4.60
2019-02-23T03:34:50.402Z,-4.60
2019-02-23T03:39:57.438Z,-4.60
2019-02-23T03:45:05.337Z,-4.60
2019-02-23T03:50:13.391Z,-4.60
2019-02-23T03:55:20.567Z,-4.50
2019-02-23T04:00:32.767Z,-4.50
2019-02-23T04:05:39.800Z,-4.50
2019-02-23T04:10:46.919Z,-4.50
2019-02-23T04:15:54.202Z,-4.40
2019-02-23T04:21:02.165Z,-4.40
2019-02-23T04:26:10.515Z,-4.40
2019-02-23T04:31:18.761Z,-4.40
2019-02-23T04:36:25.890Z,-4.40
2019-02-23T04:41:32.945Z,-4.40
2019-02-23T04:46:40.099Z,-4.40
2019-02-23T04:51:47.169Z,-4.30
2019-02-23T04:56:54.417Z,-4.30
2019-02-23T05:02:01.746Z,-4.30
2019-02-23T05:07:08.946Z,-4.40
2019-02-23T05:12:16.063Z,-4.40
2019-02-23T05:17:23.719Z,-4.50
2019-02-23T05:22:31.545Z,-4.50
2019-02-23T05:27:42.731Z,-4.40
2019-02-23T05:32:50.459Z,-4.30
2019-02-23T05:37:57.727Z,-4.20
2019-02-23T05:43:05.722Z,-4.10
2019-02-23T05:48:14.318Z,-4.00
2019-02-23T05:53:21.448Z,-4.00
2019-02-23T05:58:31.193Z,-4.00
2019-02-23T06:03:38.393Z,-4.00
2019-02-23T06:08:45.453Z,-4.00
2019-02-23T06:13:52.533Z,-3.90
2019-02-23T06:19:01.654Z,-3.80
2019-02-23T06:24:08.801Z,-3.80
2019-02-23T06:29:16.047Z,-3.70
2019-02-23T06:34:24.375Z,-3.70
2019-02-23T06:39:31.453Z,-3.70
2019-02-23T06:44:38.739Z,-3.60
2019-02-23T06:49:46.572Z,-3.50
2019-02-23T06:54:53.869Z,-3.30
2019-02-23T07:00:00.971Z,-3.10
2019-02-23T07:05:08.411Z,-3.00
2019-02-23T07:10:15.442Z,-3.00
2019-02-23T07:15:22.766Z,-2.90
2019-02-23T07:20:31.682Z,-2.90
2019-02-23T07:25:38.907Z,-2.70
2019-02-23T07:30:45.902Z,-2.70
2019-02-23T07:35:53.461Z,-2.50
2019-02-23T07:41:01.698Z,-2.40
2019-02-23T07:46:08.892Z,-2.20
2019-02-23T07:51:16.039Z,-2.20
2019-02-23T07:56:23.351Z,-2.10
2019-02-23T08:01:30.423Z,-2.10
2019-02-23T08:06:37.581Z,-1.90
2019-02-23T08:11:44.732Z,-1.90
2019-02-23T08:16:52.007Z,-1.80
2019-02-23T08:21:59.114Z,-1.70
2019-02-23T08:27:06.258Z,-1.70
2019-02-23T08:32:13.249Z,-1.50
2019-02-23T08:37:20.302Z,-1.40
2019-02-23T08:42:27.424Z,-1.30
2019-02-23T08:47:34.526Z,-1.30
2019-02-23T08:52:49.318Z,-1.30
2019-02-23T08:57:51.251Z,-1.20
2019-02-23T09:02:58.298Z,-1.10
2019-02-23T09:08:05.998Z,-1.10
2019-02-23T09:13:13.099Z,-1.00
2019-02-23T09:18:20.149Z,-0.90
2019-02-23T09:23:27.296Z,-0.80
2019-02-23T09:28:34.408Z,-0.80
2019-02-23T09:33:41.628Z,-0.70
2019-02-23T09:38:48.984Z,-0.60
2019-02-23T09:43:56.067Z,-0.50
2019-02-23T09:49:03.155Z,-0.40
2019-02-23T09:54:10.235Z,-0.30
2019-02-23T09:59:17.307Z,0.00
2019-02-23T10:04:24.355Z,0.10
2019-02-23T10:09:31.396Z,0.20
2019-02-23T10:14:39.391Z,0.20
2019-02-23T10:19:46.342Z,0.30
2019-02-23T10:24:53.323Z,0.30
2019-02-23T10:30:00.538Z,0.30
2019-02-23T10:35:08.790Z,0.10
2019-02-23T10:40:15.842Z,0.00
2019-02-23T10:45:22.945Z,0.10
2019-02-23T10:50:29.915Z,0.00
2019-02-23T10:55:36.945Z,0.00
2019-02-23T11:00:44.495Z,0.20
2019-02-23T11:05:51.490Z,0.30
2019-02-23T11:10:58.788Z,0.40
2019-02-23T11:16:06.161Z,0.50
2019-02-23T11:21:13.279Z,0.70
2019-02-23T11:26:20.563Z,1.00
2019-02-23T11:31:27.901Z,1.50
2019-02-23T11:36:35.277Z,2.20
2019-02-23T11:41:42.757Z,2.60
2019-02-23T11:47:00.045Z,2.80
2019-02-23T11:52:01.282Z,3.00
2019-02-23T11:57:10.019Z,3.40
2019-02-23T12:02:17.103Z,3.40
2019-02-23T12:07:24.181Z,3.40
2019-02-23T12:12:31.350Z,3.40
2019-02-23T12:17:38.599Z,3.70
2019-02-23T12:22:45.697Z,3.70
2019-02-23T12:27:52.781Z,3.40
2019-02-23T12:32:59.804Z,3.50
2019-02-23T12:38:06.847Z,4.00
2019-02-23T12:43:19.992Z,5.50
2019-02-23T12:48:27.070Z,8.20
2019-02-23T12:53:34.134Z,9.50
2019-02-23T12:58:41.181Z,7.90
2019-02-23T13:21:25.981Z,4.80
2019-02-23T13:27:12.353Z,5.70
2019-02-23T13:32:53.672Z,7.30
2019-02-23T13:38:38.881Z,10.00
2019-02-23T13:44:42.094Z,14.90
2019-02-23T13:50:25.598Z,19.80
2019-02-23T13:56:14.510Z,22.30
2019-02-23T14:02:09.948Z,23.70
2019-02-23T14:07:44.567Z,23.00
2019-02-23T14:13:41.620Z,21.50
2019-02-23T14:19:22.449Z,20.60
2019-02-23T14:25:07.599Z,21.10
2019-02-23T14:30:43.719Z,22.80
2019-02-23T14:36:21.497Z,22.30
2019-02-23T14:41:50.885Z,23.20
2019-02-23T14:47:25.125Z,19.50
2019-02-23T14:53:15.339Z,16.10
2019-02-23T14:58:57.237Z,13.90
2019-02-23T15:04:34.826Z,15.40
2019-02-23T15:09:57.352Z,15.70
2019-02-23T15:15:46.835Z,15.60
2019-02-23T15:21:35.788Z,15.00
2019-02-23T15:27:05.282Z,13.40
2019-02-23T15:32:45.046Z,12.60
2019-02-23T15:38:38.925Z,12.50
2019-02-23T15:44:15.684Z,10.20
2019-02-23T15:49:33.849Z,7.20
2019-02-23T15:54:41.057Z,5.20
2019-02-23T15:59:48.339Z,4.10
2019-02-23T16:04:55.526Z,3.40
2019-02-23T16:10:02.745Z,2.70
2019-02-23T16:15:10.747Z,2.30
2019-02-23T16:20:17.788Z,1.90
2019-02-23T16:25:24.902Z,1.80
2019-02-23T16:30:32.017Z,1.60
2019-02-23T16:35:39.205Z,1.50
2019-02-23T16:40:46.298Z,1.30
2019-02-23T16:45:53.358Z,1.00
2019-02-23T16:51:00.531Z,0.80
2019-02-23T16:56:07.731Z,0.60
2019-02-23T17:01:15.166Z,0.50
2019-02-23T17:06:22.254Z,0.30
2019-02-23T17:11:29.324Z,0.30
2019-02-23T17:16:36.403Z,0.20
2019-02-23T17:21:43.553Z,0.10
2019-02-23T17:26:50.701Z,0.00
2019-02-23T17:31:58.751Z,0.00
2019-02-23T17:37:06.253Z,-0.20
2019-02-23T17:42:13.450Z,-0.20
2019-02-23T17:47:20.641Z,-0.30
2019-02-23T17:52:27.882Z,-0.30
2019-02-23T17:57:36.168Z,-0.30
2019-02-23T18:02:43.281Z,-0.40
2019-02-23T18:07:50.391Z,-0.50
2019-02-23T18:12:57.566Z,-0.50
2019-02-23T18:18:04.601Z,-0.50
2019-02-23T18:23:11.624Z,-0.60
2019-02-23T18:28:18.631Z,-0.70
2019-02-23T18:33:25.674Z,-0.70
2019-02-23T18:38:32.850Z,-0.70
2019-02-23T18:43:40.014Z,-0.70
2019-02-23T18:48:47.002Z,-0.80
2019-02-23T18:53:54.214Z,-0.80
2019-02-23T18:59:01.337Z,-0.80
2019-02-23T19:04:08.605Z,-0.90
2019-02-23T19:09:15.695Z,-0.80
2019-02-23T19:14:22.751Z,-0.90
2019-02-23T19:19:29.796Z,-0.90
2019-02-23T19:24:36.967Z,-0.90
2019-02-23T19:29:45.203Z,-0.90
2019-02-23T19:34:52.294Z,-0.80
2019-02-23T19:39:59.969Z,-0.80
2019-02-23T19:45:08.406Z,-0.80
2019-02-23T19:50:21.751Z,-0.80
2019-02-23T19:55:28.982Z,-0.80
2019-02-23T20:00:36.061Z,-0.80
2019-02-23T20:05:45.539Z,-0.80
2019-02-23T20:10:52.686Z,-0.80
2019-02-23T20:15:59.766Z,-0.80
2019-02-23T20:21:07.101Z,-0.80
2019-02-23T20:26:14.320Z,-0.80
2019-02-23T20:31:21.415Z,-0.70
2019-02-23T20:36:28.566Z,-0.80
2019-02-23T20:41:35.726Z,-0.70
2019-02-23T20:46:42.893Z,-0.70
2019-02-23T20:51:50.180Z,-0.70
2019-02-23T20:57:04.110Z,-0.70
2019-02-23T21:02:06.170Z,-0.70
2019-02-23T21:07:13.349Z,-0.70
2019-02-23T21:12:21.531Z,-0.70
2019-02-23T21:17:29.820Z,-0.70
2019-02-23T21:22:36.893Z,-0.70
2019-02-23T21:27:43.968Z,-0.70
2019-02-23T21:32:51.019Z,-0.70
2019-02-23T21:37:58.198Z,-0.80
2019-02-23T21:43:05.726Z,-0.80
2019-02-23T21:48:12.898Z,-0.80
2019-02-23T21:53:20.309Z,-0.80
2019-02-23T21:58:27.479Z,-0.80
2019-02-23T22:03:34.560Z,-0.80
2019-02-23T22:08:41.624Z,-0.80
2019-02-23T22:13:48.760Z,-0.80
2019-02-23T22:18:56.162Z,-0.70
2019-02-23T22:24:05.543Z,-0.70
2019-02-23T22:29:12.624Z,-0.70
2019-02-23T22:34:19.812Z,-0.60
2019-02-23T22:39:28.992Z,-0.60
2019-02-23T22:44:36.066Z,-0.70
2019-02-23T22:49:44.354Z,-0.60
2019-02-23T22:54:54.009Z,-0.60
2019-02-23T23:00:01.222Z,-0.50
2019-02-23T23:05:09.726Z,-0.40
2019-02-23T23:10:16.679Z,-0.40
2019-02-23T23:15:23.738Z,-0.30
2019-02-23T23:20:30.909Z,-0.20
2019-02-23T23:25:39.178Z,-0.20
2019-02-23T23:30:46.350Z,-0.20
2019-02-23T23:35:54.334Z,-0.10
2019-02-23T23:41:01.431Z,0.00
2019-02-23T23:46:08.510Z,0.00
2019-02-23T23:51:15.475Z,0.00
2019-02-23T23:56:23.181Z,0.10
